Ashland, Montana
Current Conditions -  °F | °C
As of 4:53 AM on Friday 24 Oct 2014 (Local Time) from KMLS Reporting Station
Broken Clouds Broken Clouds  
Wind Chill:   Ceiling: 11000
Heat Index:   Visibility: 10mi
Dew Point:   Wind: 6mph
Humidity: 71%   Direction: 220°SW
Pressure: 29.89"   Gusts: NA
Location:  45.62°N, 106.31°W
Report Text: KMLS 241053Z AUTO 22005KT 10SM BKN110 06/01 A2989 RMK AO2 SLP120 T00610011
Loading
Personal Weather Stations






























Interactive Weather Map
Tropical Storm Tracking
New forecast layout! Learn more

10-Day Weather Forecast

Advertisements
Track Severe Weather on mobile